createdAt,value
2022-12-04T00:01:36.742Z,50.75
2022-12-04T00:06:40.058Z,50.73
2022-12-04T00:11:43.462Z,50.58
2022-12-04T00:16:47.720Z,50.79
2022-12-04T00:21:51.829Z,51.02
2022-12-04T00:26:55.375Z,50.78
2022-12-04T00:31:58.955Z,50.89
2022-12-04T00:37:02.780Z,50.73
2022-12-04T00:42:06.116Z,50.67
2022-12-04T00:47:09.703Z,50.54
2022-12-04T00:52:14.302Z,50.43
2022-12-04T00:57:17.843Z,50.36
2022-12-04T01:02:21.304Z,50.11
2022-12-04T01:07:24.667Z,50.46
2022-12-04T01:12:28.005Z,50.17
2022-12-04T01:17:31.860Z,50.33
2022-12-04T01:22:35.508Z,50.15
2022-12-04T01:27:39.463Z,50.48
2022-12-04T01:32:44.082Z,49.91
2022-12-04T01:37:47.433Z,50.10
2022-12-04T01:42:51.034Z,49.94
2022-12-04T01:47:58.897Z,50.25
2022-12-04T01:53:02.403Z,50.31
2022-12-04T01:58:07.677Z,50.29
2022-12-04T02:03:13.301Z,50.40
2022-12-04T02:08:17.060Z,50.26
2022-12-04T02:13:23.330Z,49.89
2022-12-04T02:18:39.110Z,50.06
2022-12-04T02:24:11.338Z,50.06
2022-12-04T02:29:30.179Z,49.92
2022-12-04T02:34:56.661Z,49.59
2022-12-04T02:40:12.085Z,49.77
2022-12-04T02:45:21.199Z,49.31
2022-12-04T02:50:24.938Z,49.27
2022-12-04T02:55:38.195Z,49.41
2022-12-04T03:00:44.108Z,49.19
2022-12-04T03:06:11.312Z,49.35
2022-12-04T03:11:16.170Z,48.82
2022-12-04T03:16:31.822Z,49.16
2022-12-04T03:21:41.711Z,48.79
2022-12-04T03:26:56.432Z,49.13
2022-12-04T03:32:03.780Z,48.90
2022-12-04T03:37:15.450Z,48.69
2022-12-04T03:42:47.844Z,48.89
2022-12-04T03:48:08.012Z,49.01
2022-12-04T03:53:46.897Z,48.97
2022-12-04T03:58:57.292Z,48.63
2022-12-04T04:04:04.873Z,48.56
2022-12-04T04:09:15.139Z,48.93
2022-12-04T04:14:33.663Z,48.66
2022-12-04T04:19:39.686Z,48.57
2022-12-04T04:24:47.286Z,48.36
2022-12-04T04:29:52.704Z,48.32
2022-12-04T04:34:59.421Z,48.43
2022-12-04T04:40:12.346Z,48.30
2022-12-04T04:45:42.366Z,48.93
2022-12-04T04:50:47.136Z,48.58
2022-12-04T04:55:50.809Z,48.60
2022-12-04T05:01:03.949Z,48.56
2022-12-04T05:06:07.643Z,48.47
2022-12-04T05:11:16.015Z,48.38
2022-12-04T05:16:20.729Z,48.23
2022-12-04T05:21:24.504Z,48.38
2022-12-04T05:26:28.781Z,47.98
2022-12-04T05:31:32.389Z,48.32
2022-12-04T05:36:35.762Z,48.19
2022-12-04T05:41:39.370Z,48.45
2022-12-04T05:46:42.964Z,48.11
2022-12-04T05:51:46.711Z,47.78
2022-12-04T05:56:51.891Z,48.07
2022-12-04T06:01:55.608Z,48.54
2022-12-04T06:06:59.155Z,48.21
2022-12-04T06:12:03.413Z,48.36
2022-12-04T06:17:07.196Z,48.55
2022-12-04T06:22:10.836Z,48.11
2022-12-04T06:27:29.459Z,48.32
2022-12-04T06:32:32.691Z,48.14
2022-12-04T06:37:36.114Z,48.17
2022-12-04T06:42:39.721Z,47.99
2022-12-04T06:47:43.216Z,48.05
2022-12-04T06:52:46.749Z,47.88
2022-12-04T06:57:50.081Z,47.68
2022-12-04T07:02:53.725Z,47.80
2022-12-04T07:07:57.349Z,47.69
2022-12-04T07:13:00.807Z,47.41
2022-12-04T07:18:04.863Z,47.40
2022-12-04T07:23:08.484Z,47.49
2022-12-04T07:28:12.022Z,47.62
2022-12-04T07:33:16.640Z,47.61
2022-12-04T07:38:20.702Z,47.67
2022-12-04T07:43:24.903Z,47.53
2022-12-04T07:48:33.269Z,47.58
2022-12-04T07:53:37.649Z,47.32
2022-12-04T07:58:42.368Z,47.56
2022-12-04T08:03:48.469Z,47.39
2022-12-04T08:08:53.653Z,47.43
2022-12-04T08:14:07.002Z,47.40
2022-12-04T08:19:10.477Z,47.26
2022-12-04T08:24:13.985Z,47.19
2022-12-04T08:29:17.450Z,47.12
2022-12-04T08:34:21.092Z,47.30
2022-12-04T08:39:24.694Z,47.25
2022-12-04T08:44:28.159Z,46.99
2022-12-04T08:49:31.558Z,47.20
2022-12-04T08:54:36.353Z,47.16
2022-12-04T08:59:39.777Z,47.03
2022-12-04T09:04:43.470Z,46.88
2022-12-04T09:09:48.508Z,46.84
2022-12-04T09:14:51.993Z,46.93
2022-12-04T09:20:00.555Z,47.01
2022-12-04T09:25:06.731Z,46.84
2022-12-04T09:30:12.672Z,46.95
2022-12-04T09:35:16.201Z,46.79
2022-12-04T09:40:38.093Z,46.79
2022-12-04T09:45:54.224Z,46.79
2022-12-04T09:50:58.379Z,46.50
2022-12-04T09:56:07.048Z,46.59
2022-12-04T10:01:22.270Z,46.69
2022-12-04T10:06:55.155Z,46.70
2022-12-04T10:12:10.605Z,46.59
2022-12-04T10:17:14.150Z,46.56
2022-12-04T10:22:20.218Z,46.91
2022-12-04T10:27:32.758Z,46.46
2022-12-04T10:32:37.130Z,46.73
2022-12-04T10:37:43.619Z,46.59
2022-12-04T10:42:58.120Z,46.56
2022-12-04T10:48:01.690Z,46.31
2022-12-04T10:53:08.256Z,46.60
2022-12-04T10:58:19.310Z,46.40
2022-12-04T11:03:27.634Z,46.42
2022-12-04T11:08:41.481Z,46.43
2022-12-04T11:13:45.448Z,46.11
2022-12-04T11:18:51.022Z,46.60
2022-12-04T11:23:54.860Z,46.34
2022-12-04T11:29:00.479Z,46.13
2022-12-04T11:34:08.476Z,46.23
2022-12-04T11:39:11.907Z,46.39
2022-12-04T11:44:26.132Z,46.03
2022-12-04T11:49:31.860Z,46.22
2022-12-04T11:55:00.242Z,46.49
2022-12-04T12:00:17.356Z,46.79
2022-12-04T12:05:23.301Z,46.97
2022-12-04T12:10:55.758Z,47.20
2022-12-04T12:16:11.475Z,47.57
2022-12-04T12:21:36.568Z,47.92
2022-12-04T12:26:56.255Z,48.00
2022-12-04T12:32:11.975Z,48.71
2022-12-04T12:37:37.437Z,48.91
2022-12-04T12:43:16.641Z,49.33
2022-12-04T12:48:35.018Z,49.67
2022-12-04T12:53:44.823Z,49.99
2022-12-04T12:58:56.522Z,50.49
2022-12-04T13:04:22.576Z,51.05
2022-12-04T13:09:33.665Z,51.44
2022-12-04T13:14:38.031Z,52.28
2022-12-04T13:19:45.868Z,52.48
2022-12-04T13:24:55.048Z,53.26
2022-12-04T13:30:16.958Z,53.76
2022-12-04T13:35:35.129Z,53.90
2022-12-04T13:41:07.332Z,54.53
2022-12-04T13:46:32.284Z,54.65
2022-12-04T13:51:39.202Z,55.49
2022-12-04T13:56:44.946Z,56.06
2022-12-04T14:01:53.236Z,56.46
2022-12-04T14:07:00.532Z,56.86
2022-12-04T14:12:07.619Z,57.46
2022-12-04T14:17:30.549Z,57.28
2022-12-04T14:22:43.857Z,57.98
2022-12-04T14:27:52.590Z,58.37
2022-12-04T14:33:17.652Z,58.53
2022-12-04T14:38:23.159Z,58.86
2022-12-04T14:43:33.667Z,59.09
2022-12-04T14:48:55.231Z,59.61
2022-12-04T14:54:16.122Z,59.29
2022-12-04T14:59:22.449Z,59.71
2022-12-04T15:04:32.285Z,59.72
2022-12-04T15:09:36.495Z,59.84
2022-12-04T15:14:44.303Z,60.29
2022-12-04T15:19:47.660Z,60.38
2022-12-04T15:24:52.439Z,60.27
2022-12-04T15:29:58.008Z,60.37
2022-12-04T15:35:08.094Z,60.65
2022-12-04T15:40:21.843Z,60.94
2022-12-04T15:45:30.442Z,60.88
2022-12-04T15:50:33.952Z,61.26
2022-12-04T15:55:46.528Z,61.43
2022-12-04T16:00:56.869Z,61.40
2022-12-04T16:06:09.302Z,61.33
2022-12-04T16:11:18.459Z,61.46
2022-12-04T16:16:22.857Z,61.31
2022-12-04T16:21:30.975Z,61.54
2022-12-04T16:26:37.031Z,61.32
2022-12-04T16:31:40.851Z,61.21
2022-12-04T16:36:44.840Z,61.07
2022-12-04T16:41:48.626Z,61.00
2022-12-04T16:46:52.333Z,60.78
2022-12-04T16:51:55.811Z,60.90
2022-12-04T16:57:00.567Z,60.45
2022-12-04T17:02:06.874Z,60.32
2022-12-04T17:07:10.406Z,60.40
2022-12-04T17:12:14.235Z,60.02
2022-12-04T17:17:18.744Z,59.48
2022-12-04T17:22:24.321Z,59.55
2022-12-04T17:27:28.688Z,59.41
2022-12-04T17:32:33.690Z,59.13
2022-12-04T17:37:39.037Z,58.92
2022-12-04T17:42:43.319Z,58.49
2022-12-04T17:47:46.832Z,58.46
2022-12-04T17:52:50.726Z,58.48
2022-12-04T17:57:55.139Z,58.01
2022-12-04T18:02:59.571Z,58.36
2022-12-04T18:08:03.466Z,58.07
2022-12-04T18:13:07.084Z,57.68
2022-12-04T18:18:10.504Z,57.48
2022-12-04T18:23:14.107Z,57.22
2022-12-04T18:28:18.754Z,56.79
2022-12-04T18:33:22.391Z,56.63
2022-12-04T18:38:30.531Z,56.91
2022-12-04T18:43:35.226Z,56.25
2022-12-04T18:48:39.757Z,55.89
2022-12-04T18:53:43.413Z,55.80
2022-12-04T18:58:46.804Z,55.39
2022-12-04T19:03:50.180Z,55.58
2022-12-04T19:08:54.061Z,55.31
2022-12-04T19:13:58.931Z,54.96
2022-12-04T19:19:02.826Z,54.87
2022-12-04T19:24:07.006Z,54.72
2022-12-04T19:29:11.338Z,54.51
2022-12-04T19:34:15.602Z,54.04
2022-12-04T19:39:18.916Z,54.02
2022-12-04T19:49:46.752Z,53.29
2022-12-04T19:54:50.329Z,53.06
2022-12-04T19:59:59.181Z,53.17
2022-12-04T20:05:02.999Z,53.02
2022-12-04T20:10:07.738Z,52.73
2022-12-04T20:15:12.578Z,52.20
2022-12-04T20:20:16.145Z,51.97
2022-12-04T20:25:22.012Z,51.87
2022-12-04T20:30:25.510Z,51.72
2022-12-04T20:35:29.008Z,51.61
2022-12-04T20:40:33.822Z,51.48
2022-12-04T20:45:37.087Z,51.47
2022-12-04T20:50:40.406Z,50.96
2022-12-04T20:55:53.624Z,51.07
2022-12-04T21:00:57.031Z,51.23
2022-12-04T21:06:00.154Z,51.42
2022-12-04T21:11:03.418Z,51.30
2022-12-04T21:16:07.153Z,51.54
2022-12-04T21:21:10.608Z,51.77
2022-12-04T21:26:14.763Z,52.11
2022-12-04T21:31:18.689Z,52.35
2022-12-04T21:36:22.356Z,52.38
2022-12-04T21:41:25.904Z,52.37
2022-12-04T21:46:29.432Z,52.64
2022-12-04T21:51:56.418Z,52.33
2022-12-04T21:56:58.731Z,52.68
2022-12-04T22:02:03.678Z,52.51
2022-12-04T22:07:07.452Z,52.20
2022-12-04T22:12:33.267Z,52.48
2022-12-04T22:17:34.411Z,52.23
2022-12-04T22:22:37.757Z,52.13
2022-12-04T22:27:41.206Z,52.11
2022-12-04T22:32:44.937Z,51.95
2022-12-04T22:37:48.301Z,52.08
2022-12-04T22:42:52.059Z,51.93
2022-12-04T22:47:55.564Z,52.21
2022-12-04T22:52:58.934Z,52.04
2022-12-04T22:58:02.725Z,52.10
2022-12-04T23:03:06.084Z,51.90
2022-12-04T23:08:09.689Z,52.27
2022-12-04T23:13:12.987Z,51.92
2022-12-04T23:18:16.392Z,51.86
2022-12-04T23:23:20.818Z,51.92
2022-12-04T23:28:24.244Z,51.91
2022-12-04T23:33:28.190Z,51.78
2022-12-04T23:38:32.310Z,51.78
2022-12-04T23:43:36.143Z,51.34
2022-12-04T23:48:44.343Z,51.54
2022-12-04T23:53:48.074Z,51.59
2022-12-04T23:58:53.778Z,51.34
